createdAt,value
2022-12-20T00:01:55.349Z,7.55
2022-12-20T00:04:23.550Z,8.20
2022-12-20T00:06:51.990Z,7.50
2022-12-20T00:09:20.183Z,7.50
2022-12-20T00:11:48.531Z,7.82
2022-12-20T00:14:16.934Z,7.25
2022-12-20T00:16:44.917Z,7.13
2022-12-20T00:19:14.953Z,6.82
2022-12-20T00:21:44.584Z,7.82
2022-12-20T00:24:12.635Z,7.50
2022-12-20T00:26:41.233Z,7.28
2022-12-20T00:29:09.444Z,7.00
2022-12-20T00:31:38.053Z,7.57
2022-12-20T00:34:06.928Z,6.80
2022-12-20T00:36:36.765Z,7.60
2022-12-20T00:39:05.057Z,7.43
2022-12-20T00:41:35.225Z,7.07
2022-12-20T00:44:04.165Z,7.50
2022-12-20T00:46:34.259Z,7.00
2022-12-20T00:49:02.699Z,7.45
2022-12-20T00:51:32.622Z,7.03
2022-12-20T00:54:02.373Z,6.90
2022-12-20T00:56:30.869Z,7.50
2022-12-20T00:59:00.656Z,7.32
2022-12-20T01:01:31.321Z,7.40
2022-12-20T01:04:00.322Z,7.95
2022-12-20T01:06:29.065Z,7.13
2022-12-20T01:08:57.705Z,6.75
2022-12-20T01:11:29.738Z,6.60
2022-12-20T01:14:01.191Z,6.82
2022-12-20T01:16:32.343Z,7.40
2022-12-20T01:19:00.401Z,6.93
2022-12-20T01:21:30.094Z,6.78
2022-12-20T01:23:58.820Z,7.10
2022-12-20T01:26:30.312Z,7.32
2022-12-20T01:29:00.790Z,6.80
2022-12-20T01:31:30.084Z,7.22
2022-12-20T01:33:58.723Z,7.38
2022-12-20T01:36:29.938Z,7.05
2022-12-20T01:38:59.102Z,7.20
2022-12-20T01:41:30.934Z,7.03
2022-12-20T01:44:00.970Z,7.68
2022-12-20T01:46:30.801Z,6.53
2022-12-20T01:49:03.702Z,6.82
2022-12-20T01:51:35.712Z,6.93
2022-12-20T01:54:08.342Z,6.63
2022-12-20T01:56:38.815Z,7.30
2022-12-20T01:59:07.738Z,6.90
2022-12-20T02:01:36.273Z,6.68
2022-12-20T02:04:04.807Z,7.25
2022-12-20T02:06:32.870Z,6.45
2022-12-20T02:09:04.183Z,7.03
2022-12-20T02:11:50.265Z,7.05
2022-12-20T02:14:32.991Z,6.38
2022-12-20T02:17:12.215Z,6.72
2022-12-20T02:20:07.505Z,6.75
2022-12-20T02:22:51.826Z,6.70
2022-12-20T02:25:38.464Z,7.10
2022-12-20T02:28:25.621Z,6.93
2022-12-20T02:30:57.155Z,6.40
2022-12-20T02:33:28.400Z,6.53
2022-12-20T02:35:56.709Z,6.85
2022-12-20T02:38:31.508Z,7.07
2022-12-20T02:41:05.245Z,7.15
2022-12-20T02:43:53.386Z,6.53
2022-12-20T02:46:25.258Z,7.22
2022-12-20T02:48:54.339Z,7.47
2022-12-20T02:51:24.374Z,7.07
2022-12-20T02:53:53.088Z,7.25
2022-12-20T02:56:24.460Z,6.68
2022-12-20T02:58:56.252Z,7.07
2022-12-20T03:01:29.770Z,6.78
2022-12-20T03:03:58.911Z,7.05
2022-12-20T03:06:27.355Z,6.43
2022-12-20T03:08:55.680Z,6.80
2022-12-20T03:11:24.099Z,6.57
2022-12-20T03:13:52.495Z,6.22
2022-12-20T03:16:20.638Z,6.60
2022-12-20T03:18:50.137Z,6.32
2022-12-20T03:21:18.096Z,6.40
2022-12-20T03:23:46.395Z,6.25
2022-12-20T03:26:14.599Z,6.57
2022-12-20T03:28:42.860Z,6.68
2022-12-20T03:31:11.167Z,7.00
2022-12-20T03:33:39.262Z,6.97
2022-12-20T03:36:09.539Z,5.97
2022-12-20T03:38:37.806Z,6.43
2022-12-20T03:41:06.200Z,6.43
2022-12-20T03:43:34.498Z,7.15
2022-12-20T03:46:02.743Z,6.70
2022-12-20T03:48:30.897Z,5.95
2022-12-20T03:50:59.155Z,6.10
2022-12-20T03:53:28.663Z,6.03
2022-12-20T03:55:56.533Z,6.75
2022-12-20T03:58:24.668Z,6.57
2022-12-20T04:00:52.911Z,6.63
2022-12-20T04:03:21.046Z,6.13
2022-12-20T04:05:49.409Z,6.70
2022-12-20T04:08:17.662Z,6.20
2022-12-20T04:11:04.016Z,6.22
2022-12-20T04:13:32.160Z,6.68
2022-12-20T04:16:01.358Z,6.40
2022-12-20T04:18:29.591Z,6.78
2022-12-20T04:20:57.776Z,6.53
2022-12-20T04:23:25.940Z,6.28
2022-12-20T04:25:55.660Z,6.07
2022-12-20T04:28:23.740Z,6.50
2022-12-20T04:30:52.049Z,6.05
2022-12-20T04:33:20.277Z,6.25
2022-12-20T04:35:48.644Z,6.88
2022-12-20T04:38:16.803Z,6.25
2022-12-20T04:40:44.904Z,6.65
2022-12-20T04:43:14.447Z,6.53
2022-12-20T04:45:43.255Z,5.88
2022-12-20T04:48:45.905Z,5.55
2022-12-20T04:51:00.179Z,6.10
2022-12-20T04:53:45.728Z,6.10
2022-12-20T04:56:14.053Z,6.13
2022-12-20T04:58:43.688Z,6.10
2022-12-20T05:01:12.361Z,6.13
2022-12-20T05:03:41.073Z,6.18
2022-12-20T05:06:10.237Z,5.47
2022-12-20T05:08:40.265Z,5.88
2022-12-20T05:11:08.658Z,5.65
2022-12-20T05:13:37.093Z,5.80
2022-12-20T05:16:07.312Z,5.82
2022-12-20T05:18:35.884Z,6.47
2022-12-20T05:21:21.644Z,5.88
2022-12-20T05:24:07.640Z,5.78
2022-12-20T05:26:38.201Z,5.68
2022-12-20T05:29:07.204Z,5.68
2022-12-20T05:31:36.585Z,5.80
2022-12-20T05:34:04.518Z,6.05
2022-12-20T05:36:32.380Z,5.22
2022-12-20T05:39:04.173Z,5.57
2022-12-20T05:41:32.933Z,5.30
2022-12-20T05:44:00.809Z,5.75
2022-12-20T05:46:28.888Z,6.20
2022-12-20T05:48:58.179Z,5.88
2022-12-20T05:51:26.217Z,5.40
2022-12-20T05:53:54.210Z,6.20
2022-12-20T05:56:22.344Z,6.07
2022-12-20T05:58:50.171Z,6.28
2022-12-20T06:01:18.341Z,5.53
2022-12-20T06:03:46.859Z,5.93
2022-12-20T06:06:16.504Z,5.50
2022-12-20T06:08:44.546Z,5.70
2022-12-20T06:11:13.007Z,5.95
2022-12-20T06:13:40.818Z,5.75
2022-12-20T06:16:09.124Z,6.13
2022-12-20T06:18:37.070Z,5.82
2022-12-20T06:21:05.439Z,5.78
2022-12-20T06:23:36.163Z,5.75
2022-12-20T06:26:05.895Z,5.80
2022-12-20T06:28:33.882Z,5.65
2022-12-20T06:31:02.009Z,5.30
2022-12-20T06:33:29.952Z,5.63
2022-12-20T06:35:57.818Z,5.90
2022-12-20T06:38:25.651Z,5.50
2022-12-20T06:40:54.993Z,5.93
2022-12-20T06:43:23.236Z,5.68
2022-12-20T06:45:51.242Z,5.93
2022-12-20T06:48:21.119Z,5.68
2022-12-20T06:50:55.456Z,5.50
2022-12-20T06:53:23.977Z,6.15
2022-12-20T06:55:52.421Z,5.70
2022-12-20T06:58:22.277Z,5.68
2022-12-20T07:00:51.274Z,5.72
2022-12-20T07:03:19.301Z,5.93
2022-12-20T07:05:53.062Z,5.95
2022-12-20T07:08:21.392Z,5.40
2022-12-20T07:10:49.631Z,6.10
2022-12-20T07:13:17.888Z,5.72
2022-12-20T07:15:47.606Z,5.57
2022-12-20T07:18:15.699Z,5.65
2022-12-20T07:20:44.188Z,6.05
2022-12-20T07:23:13.475Z,5.97
2022-12-20T07:25:41.728Z,5.57
2022-12-20T07:28:09.978Z,5.57
2022-12-20T07:30:38.610Z,6.13
2022-12-20T07:33:08.533Z,5.57
2022-12-20T07:35:36.743Z,5.65
2022-12-20T07:38:05.156Z,5.85
2022-12-20T07:40:33.252Z,5.45
2022-12-20T07:43:01.494Z,5.65
2022-12-20T07:45:29.619Z,5.50
2022-12-20T07:48:03.315Z,5.90
2022-12-20T07:50:38.021Z,5.53
2022-12-20T07:53:07.412Z,6.07
2022-12-20T07:55:35.659Z,5.68
2022-12-20T07:58:07.989Z,5.82
2022-12-20T08:00:37.072Z,5.45
2022-12-20T08:03:09.809Z,5.78
2022-12-20T08:05:42.317Z,6.25
2022-12-20T08:08:10.722Z,5.93
2022-12-20T08:10:39.314Z,5.93
2022-12-20T08:13:08.477Z,5.95
2022-12-20T08:15:37.151Z,5.95
2022-12-20T08:18:06.395Z,6.18
2022-12-20T08:20:35.198Z,5.75
2022-12-20T08:23:05.709Z,6.07
2022-12-20T08:25:41.166Z,6.15
2022-12-20T08:28:10.194Z,6.00
2022-12-20T08:30:38.179Z,5.93
2022-12-20T08:33:06.655Z,6.47
2022-12-20T08:35:34.657Z,6.10
2022-12-20T08:38:02.680Z,5.72
2022-12-20T08:40:32.016Z,6.10
2022-12-20T08:43:04.970Z,6.13
2022-12-20T08:45:36.562Z,5.47
2022-12-20T08:48:05.032Z,6.18
2022-12-20T08:50:32.985Z,5.78
2022-12-20T08:53:00.905Z,5.85
2022-12-20T08:55:29.511Z,5.53
2022-12-20T08:57:59.079Z,5.75
2022-12-20T09:00:27.067Z,6.05
2022-12-20T09:02:55.830Z,5.35
2022-12-20T09:05:24.179Z,5.60
2022-12-20T09:07:52.197Z,6.28
2022-12-20T09:10:20.380Z,5.85
2022-12-20T09:12:48.548Z,5.68
2022-12-20T09:15:18.124Z,5.68
2022-12-20T09:17:49.085Z,5.43
2022-12-20T09:20:17.144Z,5.40
2022-12-20T09:22:44.996Z,5.55
2022-12-20T09:25:13.132Z,6.00
2022-12-20T09:27:41.428Z,5.70
2022-12-20T09:30:10.342Z,5.22
2022-12-20T09:32:39.964Z,5.40
2022-12-20T09:35:08.490Z,6.00
2022-12-20T09:37:39.113Z,5.10
2022-12-20T09:40:13.343Z,5.72
2022-12-20T09:42:41.468Z,5.30
2022-12-20T09:45:10.945Z,5.57
2022-12-20T09:47:42.050Z,4.97
2022-12-20T09:50:17.466Z,5.22
2022-12-20T09:52:56.707Z,5.20
2022-12-20T09:55:32.667Z,5.25
2022-12-20T09:58:15.831Z,4.88
2022-12-20T10:00:53.920Z,4.82
2022-12-20T10:03:27.477Z,4.97
2022-12-20T10:05:56.928Z,4.97
2022-12-20T10:08:47.827Z,5.18
2022-12-20T10:11:36.613Z,4.50
2022-12-20T10:14:17.019Z,5.20
2022-12-20T10:16:48.016Z,4.97
2022-12-20T10:19:36.038Z,4.97
2022-12-20T10:22:10.539Z,4.65
2022-12-20T10:24:39.872Z,4.75
2022-12-20T10:27:13.863Z,4.65
2022-12-20T10:29:42.500Z,4.90
2022-12-20T10:32:14.991Z,4.68
2022-12-20T10:34:51.759Z,4.63
2022-12-20T10:37:19.817Z,4.70
2022-12-20T10:39:50.130Z,4.85
2022-12-20T10:42:34.265Z,4.65
2022-12-20T10:45:02.412Z,4.65
2022-12-20T10:47:38.791Z,4.97
2022-12-20T10:50:16.765Z,4.63
2022-12-20T10:52:45.908Z,4.85
2022-12-20T10:55:36.462Z,4.35
2022-12-20T10:58:06.784Z,4.50
2022-12-20T11:00:35.311Z,4.65
2022-12-20T11:03:13.946Z,4.95
2022-12-20T11:05:55.266Z,4.25
2022-12-20T11:08:50.184Z,5.07
2022-12-20T11:11:17.794Z,4.95
2022-12-20T11:13:47.043Z,4.70
2022-12-20T11:16:36.286Z,4.50
2022-12-20T11:19:21.675Z,4.75
2022-12-20T11:22:00.555Z,5.03
2022-12-20T11:24:36.702Z,4.15
2022-12-20T11:27:21.519Z,4.40
2022-12-20T11:30:05.808Z,4.38
2022-12-20T11:32:52.723Z,5.10
2022-12-20T11:35:25.545Z,4.43
2022-12-20T11:38:07.307Z,4.22
2022-12-20T11:40:41.467Z,4.57
2022-12-20T11:43:26.560Z,4.22
2022-12-20T11:46:15.378Z,4.35
2022-12-20T11:48:59.452Z,4.45
2022-12-20T11:51:38.385Z,4.57
2022-12-20T11:54:14.573Z,4.85
2022-12-20T11:56:45.354Z,5.32
2022-12-20T11:59:21.750Z,4.60
2022-12-20T12:01:56.012Z,4.22
2022-12-20T12:04:27.775Z,4.40
2022-12-20T12:07:01.246Z,4.57
2022-12-20T12:09:38.164Z,4.43
2022-12-20T12:12:12.815Z,3.97
2022-12-20T12:14:50.042Z,4.25
2022-12-20T12:17:24.969Z,3.92
2022-12-20T12:19:57.692Z,4.25
2022-12-20T12:22:33.061Z,4.13
2022-12-20T12:25:11.331Z,4.30
2022-12-20T12:27:40.393Z,4.22
2022-12-20T12:30:13.322Z,4.18
2022-12-20T12:32:46.059Z,4.38
2022-12-20T12:35:47.274Z,4.45
2022-12-20T12:38:38.065Z,4.28
2022-12-20T12:41:42.766Z,4.22
2022-12-20T12:44:37.121Z,3.88
2022-12-20T12:47:15.783Z,3.65
2022-12-20T12:49:48.213Z,4.22
2022-12-20T12:52:35.581Z,3.97
2022-12-20T12:55:04.444Z,3.85
2022-12-20T12:57:56.357Z,4.07
2022-12-20T13:00:52.448Z,4.03
2022-12-20T13:03:42.699Z,3.80
2022-12-20T13:06:56.158Z,3.83
2022-12-20T13:09:41.926Z,3.85
2022-12-20T13:12:52.559Z,4.20
2022-12-20T13:15:53.907Z,3.80
2022-12-20T13:18:29.813Z,3.72
2022-12-20T13:21:33.245Z,4.03
2022-12-20T13:24:38.356Z,3.88
2022-12-20T13:27:18.520Z,3.95
2022-12-20T13:30:10.186Z,3.90
2022-12-20T13:32:59.114Z,3.90
2022-12-20T13:35:45.341Z,3.70
2022-12-20T13:39:04.078Z,4.28
2022-12-20T13:41:40.558Z,3.92
2022-12-20T13:44:37.364Z,3.63
2022-12-20T13:47:18.663Z,3.85
2022-12-20T13:49:48.207Z,3.70
2022-12-20T13:52:28.444Z,3.63
2022-12-20T13:55:00.675Z,3.50
2022-12-20T13:57:33.102Z,3.50
2022-12-20T14:00:07.315Z,3.60
2022-12-20T14:02:41.407Z,3.70
2022-12-20T14:05:19.282Z,3.22
2022-12-20T14:07:49.488Z,3.63
2022-12-20T14:10:23.795Z,3.40
2022-12-20T14:12:53.576Z,3.58
2022-12-20T14:15:30.531Z,3.50
2022-12-20T14:17:59.204Z,3.58
2022-12-20T14:20:32.361Z,3.42
2022-12-20T14:23:06.509Z,3.35
2022-12-20T14:25:41.847Z,3.08
2022-12-20T14:28:26.976Z,3.22
2022-12-20T14:30:56.825Z,3.20
2022-12-20T14:33:35.162Z,3.25
2022-12-20T14:36:19.270Z,3.10
2022-12-20T14:38:49.868Z,3.17
2022-12-20T14:41:33.350Z,3.17
2022-12-20T14:44:05.223Z,3.72
2022-12-20T14:46:33.935Z,3.08
2022-12-20T14:49:19.985Z,3.40
2022-12-20T14:51:49.976Z,3.47
2022-12-20T14:54:39.760Z,3.40
2022-12-20T14:57:13.309Z,3.25
2022-12-20T14:59:41.471Z,3.08
2022-12-20T15:02:35.548Z,3.35
2022-12-20T15:05:10.360Z,3.28
2022-12-20T15:07:42.927Z,3.80
2022-12-20T15:10:13.632Z,3.63
2022-12-20T15:12:42.736Z,3.53
2022-12-20T15:15:28.608Z,3.50
2022-12-20T15:17:57.641Z,3.33
2022-12-20T15:20:25.709Z,3.70
2022-12-20T15:22:55.418Z,3.40
2022-12-20T15:25:23.449Z,3.75
2022-12-20T15:27:51.697Z,3.53
2022-12-20T15:30:20.100Z,3.65
2022-12-20T15:32:55.441Z,3.40
2022-12-20T15:35:24.933Z,3.40
2022-12-20T15:37:54.496Z,3.50
2022-12-20T15:40:22.399Z,3.50
2022-12-20T15:42:50.411Z,3.42
2022-12-20T15:45:18.836Z,3.63
2022-12-20T15:47:46.770Z,3.80
2022-12-20T15:50:14.959Z,3.88
2022-12-20T15:52:45.570Z,3.70
2022-12-20T15:55:15.251Z,3.58
2022-12-20T15:57:43.243Z,3.42
2022-12-20T16:00:13.354Z,3.80
2022-12-20T16:02:41.433Z,3.40
2022-12-20T16:05:15.977Z,3.75
2022-12-20T16:07:48.708Z,3.38
2022-12-20T16:10:23.041Z,3.50
2022-12-20T16:12:51.090Z,3.58
2022-12-20T16:15:22.863Z,3.72
2022-12-20T16:17:53.489Z,3.38
2022-12-20T16:20:24.841Z,3.67
2022-12-20T16:22:53.117Z,4.07
2022-12-20T16:25:33.140Z,3.63
2022-12-20T16:28:03.687Z,3.70
2022-12-20T16:30:31.970Z,3.70
2022-12-20T16:33:00.244Z,4.18
2022-12-20T16:35:31.629Z,3.72
2022-12-20T16:38:01.423Z,4.07
2022-12-20T16:40:37.994Z,3.70
2022-12-20T16:43:05.918Z,3.95
2022-12-20T16:45:34.743Z,4.03
2022-12-20T16:48:02.707Z,4.10
2022-12-20T16:50:31.965Z,3.63
2022-12-20T16:52:59.941Z,3.58
2022-12-20T16:55:37.701Z,4.13
2022-12-20T16:58:11.036Z,4.05
2022-12-20T17:00:41.931Z,4.50
2022-12-20T17:03:10.434Z,3.70
2022-12-20T17:05:39.576Z,3.80
2022-12-20T17:10:55.182Z,4.35
2022-12-20T17:13:25.074Z,3.88
2022-12-20T17:15:53.450Z,3.85
2022-12-20T17:18:22.851Z,3.97
2022-12-20T17:20:51.004Z,4.00
2022-12-20T17:23:19.051Z,3.85
2022-12-20T17:25:53.892Z,3.65
2022-12-20T17:28:23.536Z,3.92
2022-12-20T17:31:12.465Z,3.70
2022-12-20T17:33:40.641Z,4.00
2022-12-20T17:36:09.498Z,4.50
2022-12-20T17:38:39.450Z,4.15
2022-12-20T17:41:11.764Z,3.88
2022-12-20T17:43:39.602Z,4.35
2022-12-20T17:46:08.867Z,4.15
2022-12-20T17:48:42.028Z,4.03
2022-12-20T17:51:17.329Z,3.90
2022-12-20T17:53:45.517Z,4.32
2022-12-20T17:56:15.794Z,4.70
2022-12-20T17:58:44.282Z,4.30
2022-12-20T18:01:23.335Z,4.18
2022-12-20T18:04:03.355Z,4.13
2022-12-20T18:06:33.738Z,4.47
2022-12-20T18:09:02.116Z,4.65
2022-12-20T18:11:30.162Z,4.43
2022-12-20T18:14:00.404Z,4.22
2022-12-20T18:16:31.603Z,4.60
2022-12-20T18:18:59.935Z,4.60
2022-12-20T18:21:28.469Z,4.63
2022-12-20T18:23:56.759Z,4.60
2022-12-20T18:26:26.811Z,4.10
2022-12-20T18:28:56.139Z,4.45
2022-12-20T18:31:28.389Z,4.20
2022-12-20T18:33:59.108Z,4.50
2022-12-20T18:36:29.167Z,4.72
2022-12-20T18:38:58.631Z,4.38
2022-12-20T18:41:29.387Z,4.53
2022-12-20T18:43:59.257Z,4.18
2022-12-20T18:46:27.841Z,3.75
2022-12-20T18:48:58.263Z,4.60
2022-12-20T18:51:28.835Z,4.63
2022-12-20T18:53:58.237Z,4.53
2022-12-20T18:56:29.347Z,4.70
2022-12-20T18:58:58.256Z,4.38
2022-12-20T19:01:30.939Z,4.15
2022-12-20T19:04:02.719Z,4.68
2022-12-20T19:06:31.866Z,4.30
2022-12-20T19:09:00.792Z,4.43
2022-12-20T19:11:29.200Z,4.47
2022-12-20T19:13:57.853Z,4.57
2022-12-20T19:16:29.556Z,4.50
2022-12-20T19:18:58.527Z,4.10
2022-12-20T19:21:29.881Z,4.68
2022-12-20T19:24:05.002Z,4.43
2022-12-20T19:26:32.897Z,4.32
2022-12-20T19:29:01.026Z,4.13
2022-12-20T19:31:30.592Z,4.10
2022-12-20T19:34:01.148Z,4.13
2022-12-20T19:36:32.219Z,4.43
2022-12-20T19:39:01.902Z,4.60
2022-12-20T19:41:31.892Z,4.30
2022-12-20T19:44:00.508Z,4.30
2022-12-20T19:46:29.991Z,4.35
2022-12-20T19:49:00.606Z,4.43
2022-12-20T19:51:30.472Z,4.45
2022-12-20T19:53:59.430Z,3.80
2022-12-20T19:56:28.769Z,4.15
2022-12-20T19:58:57.444Z,4.03
2022-12-20T20:01:27.405Z,4.30
2022-12-20T20:03:56.733Z,4.55
2022-12-20T20:06:26.087Z,4.18
2022-12-20T20:08:57.855Z,4.32
2022-12-20T20:11:26.292Z,4.13
2022-12-20T20:13:54.237Z,4.32
2022-12-20T20:16:23.150Z,4.35
2022-12-20T20:18:51.862Z,3.95
2022-12-20T20:21:22.643Z,3.75
2022-12-20T20:23:51.651Z,4.00
2022-12-20T20:26:24.319Z,4.53
2022-12-20T20:28:52.895Z,4.10
2022-12-20T20:31:22.189Z,4.03
2022-12-20T20:33:50.773Z,4.35
2022-12-20T20:36:20.931Z,4.18
2022-12-20T20:38:50.018Z,3.80
2022-12-20T20:41:18.462Z,3.90
2022-12-20T20:43:48.179Z,3.80
2022-12-20T20:46:18.117Z,3.78
2022-12-20T20:48:46.686Z,3.92
2022-12-20T20:51:14.987Z,4.25
2022-12-20T20:53:43.112Z,3.78
2022-12-20T20:56:11.348Z,3.80
2022-12-20T20:58:39.556Z,4.18
2022-12-20T21:01:09.927Z,3.63
2022-12-20T21:03:40.000Z,3.88
2022-12-20T21:08:56.846Z,3.60
2022-12-20T21:11:25.041Z,3.78
2022-12-20T21:13:54.607Z,3.85
2022-12-20T21:16:24.538Z,4.03
2022-12-20T21:18:53.090Z,3.67
2022-12-20T21:21:21.558Z,3.90
2022-12-20T21:23:50.117Z,4.13
2022-12-20T21:26:19.203Z,3.90
2022-12-20T21:28:47.255Z,3.72
2022-12-20T21:31:17.356Z,3.88
2022-12-20T21:33:47.184Z,4.15
2022-12-20T21:36:16.569Z,3.65
2022-12-20T21:38:50.152Z,4.10
2022-12-20T21:41:19.006Z,4.20
2022-12-20T21:43:47.306Z,3.92
2022-12-20T21:46:15.169Z,3.92
2022-12-20T21:48:44.819Z,3.72
2022-12-20T21:51:16.081Z,4.10
2022-12-20T21:53:45.722Z,4.28
2022-12-20T21:56:15.694Z,4.07
2022-12-20T21:58:44.474Z,4.15
2022-12-20T22:01:14.086Z,3.75
2022-12-20T22:03:42.643Z,3.90
2022-12-20T22:06:11.079Z,4.38
2022-12-20T22:08:40.392Z,4.07
2022-12-20T22:11:10.600Z,3.83
2022-12-20T22:13:41.997Z,3.50
2022-12-20T22:16:12.194Z,3.85
2022-12-20T22:18:40.977Z,3.58
2022-12-20T22:21:11.124Z,3.97
2022-12-20T22:23:41.210Z,3.90
2022-12-20T22:26:11.507Z,4.40
2022-12-20T22:28:40.907Z,4.13
2022-12-20T22:31:09.566Z,3.97
2022-12-20T22:33:38.622Z,4.07
2022-12-20T22:36:07.253Z,4.50
2022-12-20T22:38:35.692Z,4.20
2022-12-20T22:41:13.946Z,4.45
2022-12-20T22:43:42.707Z,4.75
2022-12-20T22:46:11.491Z,4.22
2022-12-20T22:48:40.338Z,4.20
2022-12-20T22:51:11.576Z,4.70
2022-12-20T22:53:39.612Z,4.68
2022-12-20T22:56:08.419Z,4.07
2022-12-20T22:58:38.521Z,4.38
2022-12-20T23:01:09.172Z,4.28
2022-12-20T23:03:37.849Z,4.30
2022-12-20T23:06:07.716Z,4.03
2022-12-20T23:08:37.605Z,4.22
2022-12-20T23:11:28.015Z,4.43
2022-12-20T23:14:14.755Z,3.90
2022-12-20T23:16:42.666Z,4.40
2022-12-20T23:19:10.595Z,4.22
2022-12-20T23:21:56.064Z,4.40
2022-12-20T23:24:24.074Z,4.20
2022-12-20T23:26:52.029Z,3.97
2022-12-20T23:29:22.133Z,4.10
2022-12-20T23:31:50.215Z,4.35
2022-12-20T23:34:18.168Z,4.28
2022-12-20T23:36:46.072Z,4.10
2022-12-20T23:39:14.167Z,4.45
2022-12-20T23:41:42.019Z,4.80
2022-12-20T23:44:09.899Z,4.45
2022-12-20T23:46:39.423Z,4.63
2022-12-20T23:49:07.504Z,4.22
2022-12-20T23:51:35.426Z,4.55
2022-12-20T23:54:03.250Z,4.57
2022-12-20T23:56:31.064Z,4.45
2022-12-20T23:58:58.925Z,4.72
